Sumperk, Czech Republic
Current Conditions -  °F | °C
As of 2:00 AM on Sunday 23 Nov 2014 (Local Time) from LKMT Reporting Station
Overcast Overcast  
Wind Chill: 39°   Ceiling: 3200
Heat Index: 39°   Visibility: 6mi
Dew Point: 32°   Wind: 3mph
Humidity: 75%   Direction: 120°ESE
Pressure: 30.36"   Gusts: NA
Location:  49.97°N, 16.97°E
Report Text: LKMT 230000Z 12003KT 9999 OVC032 04/M00 Q1028 NOSIG
Loading
Personal Weather Stations






























Interactive Weather Map New forecast layout! Learn more

10-Day Weather Forecast

Advertisements
Track Severe Weather on mobile